Time;durP1;ratioP1;P1;durP2;ratioP2;P2;SDS_P1;SDS_P2;PMS_P1;PMS_P2;Temp;Humidity;BMP_temperature;BMP_pressure;BME280_temperature;BME280_humidity;BME280_pressure;Samples;Min_cycle;Max_cycle;Signal;HPM_P1;HPM_P2
2022/03/22 00:00:28;;;;;;;13.70;8.85;;;;;;;;;;6250241;23;20148;-60
2022/03/22 00:02:54;;;;;;;16.60;9.15;;;;;;;;;;6247415;23;20140;-61
2022/03/22 00:05:20;;;;;;;13.77;9.10;;;;;;;;;;6246902;23;20210;-62
2022/03/22 00:07:46;;;;;;;14.18;9.50;;;;;;;;;;6247805;23;20636;-61
2022/03/22 00:10:12;;;;;;;14.60;9.20;;;;;;;;;;6247256;23;20144;-60
2022/03/22 00:12:38;;;;;;;13.43;8.85;;;;;;;;;;6247176;23;20175;-59
2022/03/22 00:15:05;;;;;;;13.90;8.40;;;;;;;;;;6247622;23;20497;-62
2022/03/22 00:17:31;;;;;;;16.67;9.32;;;;;;;;;;6247231;23;20201;-61
2022/03/22 00:19:57;;;;;;;16.05;9.38;;;;;;;;;;6247400;23;20274;-59
2022/03/22 00:22:24;;;;;;;12.57;8.60;;;;;;;;;;6247028;23;20163;-62
2022/03/22 00:24:50;;;;;;;13.10;8.90;;;;;;;;;;6247075;23;20124;-60
2022/03/22 00:27:16;;;;;;;14.13;8.93;;;;;;;;;;6247619;23;20210;-62
2022/03/22 00:29:42;;;;;;;13.70;9.10;;;;;;;;;;6221185;23;20476;-60
2022/03/22 00:32:08;;;;;;;14.02;8.73;;;;;;;;;;6247170;23;20206;-61
2022/03/22 00:34:34;;;;;;;12.60;8.38;;;;;;;;;;6247363;23;20622;-61
2022/03/22 00:37:00;;;;;;;13.65;8.63;;;;;;;;;;6247052;23;20139;-62
2022/03/22 00:39:26;;;;;;;12.13;8.15;;;;;;;;;;6247228;23;20168;-62
2022/03/22 00:41:54;;;;;;;15.05;8.90;;;;;;;;;;6247270;23;20168;-61
2022/03/22 00:44:22;;;;;;;15.43;8.98;;;;;;;;;;6246916;23;20136;-61
2022/03/22 00:46:50;;;;;;;14.52;8.43;;;;;;;;;;6246855;23;20447;-63
2022/03/22 00:49:16;;;;;;;13.77;9.02;;;;;;;;;;6247081;23;20141;-62
2022/03/22 00:51:41;;;;;;;13.63;8.98;;;;;;;;;;6247433;23;20141;-60
2022/03/22 00:54:08;;;;;;;15.35;9.13;;;;;;;;;;6248429;23;20489;-62
2022/03/22 00:56:34;;;;;;;12.93;8.75;;;;;;;;;;6250117;23;20151;-62
2022/03/22 01:01:45;;;;;;;11.95;8.13;;;;;;;;;;6249229;23;20183;-62
2022/03/22 01:04:10;;;;;;;14.55;8.32;;;;;;;;;;6249424;23;20442;-62
2022/03/22 01:06:37;;;;;;;14.93;8.57;;;;;;;;;;6248872;23;20606;-62
2022/03/22 01:09:03;;;;;;;13.18;9.00;;;;;;;;;;6223231;23;20238;-62
2022/03/22 01:11:29;;;;;;;13.23;8.35;;;;;;;;;;6249342;23;20234;-61
2022/03/22 01:13:56;;;;;;;14.63;9.05;;;;;;;;;;6249559;23;20499;-61
2022/03/22 01:16:22;;;;;;;16.85;9.00;;;;;;;;;;6249298;23;20140;-61
2022/03/22 01:18:48;;;;;;;12.77;8.10;;;;;;;;;;6248003;23;20171;-61
2022/03/22 01:21:14;;;;;;;14.75;8.32;;;;;;;;;;6248728;23;20439;-62
2022/03/22 01:23:40;;;;;;;12.85;8.98;;;;;;;;;;6248562;23;20156;-61
2022/03/22 01:26:06;;;;;;;13.13;8.13;;;;;;;;;;6248732;23;20136;-61
2022/03/22 01:28:32;;;;;;;14.15;8.95;;;;;;;;;;6249212;23;20148;-60
2022/03/22 01:30:58;;;;;;;13.38;8.68;;;;;;;;;;6249389;23;20552;-60
2022/03/22 01:33:24;;;;;;;14.10;8.75;;;;;;;;;;6249381;23;20140;-61
2022/03/22 01:35:49;;;;;;;14.20;8.30;;;;;;;;;;6249618;23;20155;-61
2022/03/22 01:38:15;;;;;;;14.13;8.27;;;;;;;;;;6248889;23;20191;-61
2022/03/22 01:40:42;;;;;;;11.93;7.85;;;;;;;;;;6249143;23;20562;-61
2022/03/22 01:43:08;;;;;;;13.18;8.30;;;;;;;;;;6249366;23;20140;-61
2022/03/22 01:45:34;;;;;;;13.38;8.18;;;;;;;;;;6249599;23;20172;-62
2022/03/22 01:48:01;;;;;;;11.45;8.35;;;;;;;;;;6250438;23;20214;-61
2022/03/22 01:50:27;;;;;;;12.50;7.90;;;;;;;;;;6249616;23;20182;-61
2022/03/22 01:52:54;;;;;;;12.52;8.75;;;;;;;;;;6249536;23;20155;-61
2022/03/22 01:55:20;;;;;;;16.95;8.77;;;;;;;;;;6249872;23;20544;-61
2022/03/22 01:57:47;;;;;;;11.85;8.10;;;;;;;;;;6250631;23;20148;-61
2022/03/22 02:00:18;;;;;;;13.38;8.23;;;;;;;;;;6250045;23;20136;-62
2022/03/22 02:08:21;;;;;;;15.40;8.90;;;;;;;;;;6249816;23;20167;-61
2022/03/22 02:10:47;;;;;;;13.35;8.88;;;;;;;;;;6249969;23;20176;-61
2022/03/22 02:13:13;;;;;;;12.93;8.63;;;;;;;;;;6249881;23;20202;-62
2022/03/22 02:15:39;;;;;;;14.55;8.77;;;;;;;;;;6249642;23;20440;-61
2022/03/22 02:18:05;;;;;;;11.85;8.10;;;;;;;;;;6249912;23;20170;-61
2022/03/22 02:20:32;;;;;;;14.57;8.63;;;;;;;;;;6249816;23;20151;-61
2022/03/22 02:23:05;;;;;;;14.45;7.85;;;;;;;;;;6249952;23;20213;-62
2022/03/22 02:25:31;;;;;;;14.20;9.18;;;;;;;;;;6250468;23;20195;-62
2022/03/22 02:27:57;;;;;;;14.85;8.27;;;;;;;;;;6251060;23;20140;-62
2022/03/22 02:30:23;;;;;;;14.00;8.48;;;;;;;;;;6251677;23;20172;-62
2022/03/22 02:32:51;;;;;;;14.75;9.02;;;;;;;;;;6251486;23;20424;-62
2022/03/22 02:35:17;;;;;;;15.25;8.57;;;;;;;;;;6225235;23;20172;-62
2022/03/22 02:37:43;;;;;;;14.73;8.60;;;;;;;;;;6251882;23;20274;-62
2022/03/22 02:40:10;;;;;;;13.88;8.07;;;;;;;;;;6251752;23;20561;-62
2022/03/22 02:42:36;;;;;;;15.07;8.45;;;;;;;;;;6255331;23;20140;-62
2022/03/22 02:45:01;;;;;;;14.25;8.25;;;;;;;;;;6251412;23;20162;-62
2022/03/22 02:47:27;;;;;;;13.13;9.05;;;;;;;;;;6251251;23;20147;-61
2022/03/22 02:49:53;;;;;;;12.52;8.68;;;;;;;;;;6250142;23;20140;-61
2022/03/22 02:52:19;;;;;;;15.32;8.88;;;;;;;;;;6250267;23;20148;-61
2022/03/22 02:54:45;;;;;;;13.40;8.80;;;;;;;;;;6250747;23;20415;-62
2022/03/22 02:57:11;;;;;;;16.83;9.45;;;;;;;;;;6250402;23;20140;-61
2022/03/22 02:59:37;;;;;;;14.35;9.00;;;;;;;;;;6249853;23;20172;-61
2022/03/22 03:02:05;;;;;;;14.57;8.82;;;;;;;;;;6250700;23;20151;-61
2022/03/22 03:04:30;;;;;;;12.52;7.97;;;;;;;;;;6250646;23;20151;-61
2022/03/22 03:06:56;;;;;;;15.98;9.18;;;;;;;;;;6249747;23;20233;-61
2022/03/22 03:09:22;;;;;;;11.68;8.40;;;;;;;;;;6250009;23;20510;-60
2022/03/22 03:11:48;;;;;;;14.48;8.82;;;;;;;;;;6249538;23;20231;-61
2022/03/22 03:16:59;;;;;;;14.48;8.70;;;;;;;;;;6250034;23;20231;-61
2022/03/22 03:19:25;;;;;;;13.10;8.85;;;;;;;;;;6250580;23;20172;-60
2022/03/22 03:21:51;;;;;;;13.15;9.25;;;;;;;;;;6252759;23;20136;-62
2022/03/22 03:24:17;;;;;;;15.80;9.30;;;;;;;;;;6251421;23;20156;-61
2022/03/22 03:26:43;;;;;;;14.80;8.77;;;;;;;;;;6250278;23;20137;-60
2022/03/22 03:29:09;;;;;;;16.80;9.32;;;;;;;;;;6250235;23;20148;-61
2022/03/22 03:31:35;;;;;;;14.30;9.30;;;;;;;;;;6250715;23;20141;-60
2022/03/22 03:34:01;;;;;;;14.80;8.95;;;;;;;;;;6250924;23;20152;-61
2022/03/22 03:36:27;;;;;;;15.88;9.57;;;;;;;;;;6251077;23;20149;-63
2022/03/22 03:38:53;;;;;;;13.20;8.55;;;;;;;;;;6250678;23;20204;-60
2022/03/22 03:47:03;;;;;;;13.93;8.48;;;;;;;;;;6250443;23;20436;-62
2022/03/22 03:47:07;;;;;;;16.45;9.38;;;;;;;;;;6250523;23;20143;-62
2022/03/22 03:49:34;;;;;;;14.13;8.30;;;;;;;;;;6250232;23;20124;-62
2022/03/22 03:52:00;;;;;;;13.07;8.95;;;;;;;;;;6250818;23;20487;-61
2022/03/22 03:54:26;;;;;;;16.55;9.05;;;;;;;;;;6249961;23;20203;-62
2022/03/22 03:56:52;;;;;;;16.48;9.20;;;;;;;;;;6250122;23;20144;-60
2022/03/22 03:59:18;;;;;;;17.58;9.27;;;;;;;;;;6250368;23;20168;-61
2022/03/22 04:01:44;;;;;;;14.80;9.15;;;;;;;;;;6249901;23;20180;-62
2022/03/22 04:04:10;;;;;;;14.88;8.65;;;;;;;;;;6250675;23;20213;-61
2022/03/22 04:06:36;;;;;;;14.27;9.30;;;;;;;;;;6250083;23;20579;-62
2022/03/22 04:09:02;;;;;;;17.02;9.68;;;;;;;;;;6250068;23;20140;-61
2022/03/22 04:11:28;;;;;;;17.65;9.65;;;;;;;;;;6249725;23;20155;-60
2022/03/22 04:13:54;;;;;;;15.18;8.93;;;;;;;;;;6249835;23;20441;-60
2022/03/22 04:16:20;;;;;;;14.57;9.73;;;;;;;;;;6256036;23;20159;-62
2022/03/22 04:18:46;;;;;;;20.50;9.70;;;;;;;;;;6254009;23;20168;-62
2022/03/22 04:21:12;;;;;;;13.88;8.23;;;;;;;;;;6250271;23;20424;-62
2022/03/22 04:23:38;;;;;;;13.85;9.23;;;;;;;;;;6250437;23;20168;-62
2022/03/22 04:26:04;;;;;;;15.57;9.23;;;;;;;;;;6249983;23;20575;-61
2022/03/22 04:34:07;;;;;;;15.45;9.25;;;;;;;;;;6250524;23;20147;-62
2022/03/22 04:36:35;;;;;;;16.73;9.65;;;;;;;;;;6250659;23;20144;-61
2022/03/22 04:39:01;;;;;;;16.27;8.52;;;;;;;;;;6250846;23;20164;-62
2022/03/22 04:41:27;;;;;;;16.05;9.15;;;;;;;;;;6250621;23;20137;-63
2022/03/22 04:43:53;;;;;;;17.23;9.70;;;;;;;;;;6249799;23;20159;-62
2022/03/22 04:46:19;;;;;;;15.23;9.07;;;;;;;;;;6250140;23;20160;-62
2022/03/22 04:48:45;;;;;;;14.10;9.73;;;;;;;;;;6249583;23;20439;-62
2022/03/22 04:56:46;;;;;;;17.00;8.50;;;;;;;;;;6249336;23;20147;-62
2022/03/22 04:59:12;;;;;;;18.75;10.05;;;;;;;;;;6249577;23;20178;-62
2022/03/22 05:01:38;;;;;;;16.10;9.57;;;;;;;;;;6249284;23;20151;-60
2022/03/22 05:04:04;;;;;;;21.30;9.88;;;;;;;;;;6248949;23;20140;-59
2022/03/22 05:06:35;;;;;;;14.98;9.85;;;;;;;;;;6248661;23;20198;-60
2022/03/22 05:09:01;;;;;;;19.77;9.70;;;;;;;;;;6249196;23;20202;-62
2022/03/22 05:11:27;;;;;;;17.98;9.90;;;;;;;;;;6249985;23;20140;-60
2022/03/22 05:13:54;;;;;;;16.80;9.73;;;;;;;;;;6248873;23;20144;-61
2022/03/22 05:16:21;;;;;;;16.30;9.23;;;;;;;;;;6249172;23;20144;-61
2022/03/22 05:18:47;;;;;;;16.77;9.07;;;;;;;;;;6249363;23;20183;-61
2022/03/22 05:21:13;;;;;;;15.98;9.77;;;;;;;;;;6248723;23;20170;-62
2022/03/22 05:23:39;;;;;;;14.07;9.38;;;;;;;;;;6248090;23;20159;-61
2022/03/22 05:26:05;;;;;;;16.52;9.15;;;;;;;;;;6248764;23;20141;-60
2022/03/22 05:28:31;;;;;;;13.63;9.20;;;;;;;;;;6248412;23;20140;-61
2022/03/22 05:30:58;;;;;;;14.38;8.57;;;;;;;;;;6253248;23;20565;-61
2022/03/22 05:33:24;;;;;;;14.07;9.23;;;;;;;;;;6250344;23;20232;-61
2022/03/22 05:35:50;;;;;;;15.13;9.60;;;;;;;;;;6248745;23;20453;-61
2022/03/22 05:38:16;;;;;;;18.10;9.85;;;;;;;;;;6248633;23;20167;-61
2022/03/22 05:40:42;;;;;;;18.95;9.68;;;;;;;;;;6249415;23;20283;-61
2022/03/22 05:43:08;;;;;;;16.88;10.32;;;;;;;;;;6249739;23;20487;-62
2022/03/22 05:45:34;;;;;;;18.58;10.10;;;;;;;;;;6249584;23;20580;-62
2022/03/22 05:48:00;;;;;;;15.75;9.05;;;;;;;;;;6249409;23;20239;-62
2022/03/22 05:50:26;;;;;;;15.07;8.48;;;;;;;;;;6249783;23;20144;-62
2022/03/22 05:52:53;;;;;;;15.75;9.63;;;;;;;;;;6249281;23;20164;-62
2022/03/22 05:55:19;;;;;;;15.95;10.05;;;;;;;;;;6249213;23;20146;-62
2022/03/22 05:57:45;;;;;;;16.00;8.73;;;;;;;;;;6249606;23;20144;-62
2022/03/22 06:00:11;;;;;;;15.00;9.18;;;;;;;;;;6249748;23;20210;-62
2022/03/22 06:02:38;;;;;;;17.48;9.60;;;;;;;;;;6250615;23;20171;-61
2022/03/22 06:05:08;;;;;;;14.93;9.13;;;;;;;;;;6251207;23;20140;-61
2022/03/22 06:07:34;;;;;;;15.52;9.75;;;;;;;;;;6251573;23;20151;-61
2022/03/22 06:10:00;;;;;;;15.52;9.63;;;;;;;;;;6250790;23;20151;-60
2022/03/22 06:12:26;;;;;;;19.42;10.05;;;;;;;;;;6250566;23;20145;-62
2022/03/22 06:15:14;;;;;;;15.38;9.13;;;;;;;;;;6250418;23;20208;-62
2022/03/22 06:17:38;;;;;;;15.45;9.75;;;;;;;;;;6250013;23;20179;-61
2022/03/22 06:20:04;;;;;;;19.10;9.77;;;;;;;;;;6250181;23;20159;-61
2022/03/22 06:22:30;;;;;;;22.75;10.50;;;;;;;;;;6249158;23;20147;-61
2022/03/22 06:24:56;;;;;;;16.58;10.02;;;;;;;;;;6250406;23;20258;-61
2022/03/22 06:27:22;;;;;;;17.70;10.75;;;;;;;;;;6250526;23;20136;-61
2022/03/22 06:29:47;;;;;;;17.60;11.02;;;;;;;;;;6250356;23;20145;-60
2022/03/22 06:32:13;;;;;;;15.98;11.13;;;;;;;;;;6251188;23;20149;-61
2022/03/22 06:34:39;;;;;;;18.98;11.52;;;;;;;;;;6251020;23;20156;-61
2022/03/22 06:37:05;;;;;;;20.73;11.73;;;;;;;;;;6251155;23;20162;-61
2022/03/22 06:39:31;;;;;;;18.25;11.02;;;;;;;;;;6250856;23;20233;-61
2022/03/22 06:41:57;;;;;;;17.48;9.82;;;;;;;;;;6251117;23;20243;-62
2022/03/22 06:44:23;;;;;;;16.77;10.52;;;;;;;;;;6250962;23;20140;-61
2022/03/22 06:46:49;;;;;;;17.88;10.23;;;;;;;;;;6250935;23;20166;-61
2022/03/22 06:49:15;;;;;;;17.73;10.25;;;;;;;;;;6251115;23;20600;-62
2022/03/22 06:51:41;;;;;;;14.93;9.50;;;;;;;;;;6251762;23;20141;-61
2022/03/22 06:54:07;;;;;;;15.35;9.75;;;;;;;;;;6251465;23;20148;-62
2022/03/22 06:56:33;;;;;;;16.92;10.10;;;;;;;;;;6224655;23;20153;-62
2022/03/22 06:58:59;;;;;;;20.00;10.85;;;;;;;;;;6251637;23;20164;-62
2022/03/22 07:01:25;;;;;;;20.77;10.90;;;;;;;;;;6251687;23;20447;-61
2022/03/22 07:03:50;;;;;;;13.80;9.68;;;;;;;;;;6250285;23;20144;-62
2022/03/22 07:06:16;;;;;;;17.08;10.63;;;;;;;;;;6250511;23;20210;-62
2022/03/22 07:08:42;;;;;;;17.17;10.60;;;;;;;;;;6249662;23;20163;-62
2022/03/22 07:13:53;;;;;;;14.27;10.40;;;;;;;;;;6249244;23;20162;-62
2022/03/22 07:16:19;;;;;;;16.45;10.10;;;;;;;;;;6249224;23;20553;-61
2022/03/22 07:18:45;;;;;;;16.38;10.23;;;;;;;;;;6250451;23;20247;-62
2022/03/22 07:21:11;;;;;;;14.82;10.25;;;;;;;;;;6250919;23;20205;-62
2022/03/22 07:23:38;;;;;;;16.67;9.95;;;;;;;;;;6250609;23;20171;-62
2022/03/22 07:26:04;;;;;;;14.40;9.95;;;;;;;;;;6250858;23;20175;-62
2022/03/22 07:28:30;;;;;;;14.90;10.10;;;;;;;;;;6250794;23;20149;-62
2022/03/22 07:30:56;;;;;;;15.15;10.00;;;;;;;;;;6250326;23;20141;-61
2022/03/22 07:33:22;;;;;;;14.20;9.90;;;;;;;;;;6249757;23;20203;-61
2022/03/22 07:35:47;;;;;;;17.08;10.40;;;;;;;;;;6249759;23;20140;-61
2022/03/22 07:38:13;;;;;;;16.38;10.85;;;;;;;;;;6249636;23;20164;-62
2022/03/22 07:40:39;;;;;;;16.55;10.80;;;;;;;;;;6249904;23;20151;-61
2022/03/22 07:43:05;;;;;;;13.43;10.10;;;;;;;;;;6250192;23;20438;-61
2022/03/22 07:45:31;;;;;;;15.90;10.77;;;;;;;;;;6250142;23;20144;-61
2022/03/22 07:47:57;;;;;;;14.32;10.18;;;;;;;;;;6249075;23;20148;-61
2022/03/22 07:53:08;;;;;;;16.70;10.93;;;;;;;;;;6249659;23;20576;-61
2022/03/22 07:55:34;;;;;;;19.73;10.85;;;;;;;;;;6249313;23;20140;-61
2022/03/22 07:58:00;;;;;;;18.27;10.77;;;;;;;;;;6248699;23;20141;-61
2022/03/22 08:00:26;;;;;;;14.45;10.02;;;;;;;;;;6249823;23;20144;-61
2022/03/22 08:02:54;;;;;;;15.10;10.38;;;;;;;;;;6249858;23;20540;-61
2022/03/22 08:05:20;;;;;;;19.65;10.55;;;;;;;;;;6250448;23;20159;-61
2022/03/22 08:07:46;;;;;;;15.75;11.05;;;;;;;;;;6250027;23;20505;-60
2022/03/22 08:10:13;;;;;;;16.10;10.85;;;;;;;;;;6249852;23;20160;-61
2022/03/22 08:12:39;;;;;;;14.30;10.18;;;;;;;;;;6249234;23;20422;-61
2022/03/22 08:15:05;;;;;;;15.65;11.35;;;;;;;;;;6249251;23;20533;-62
2022/03/22 08:17:31;;;;;;;16.73;11.35;;;;;;;;;;6249279;23;20136;-61
2022/03/22 08:19:57;;;;;;;17.25;11.60;;;;;;;;;;6249972;23;20178;-62
2022/03/22 08:22:23;;;;;;;15.93;10.75;;;;;;;;;;6249914;23;20164;-61
2022/03/22 08:24:52;;;;;;;16.23;11.60;;;;;;;;;;6248973;23;20227;-62
2022/03/22 08:27:18;;;;;;;15.27;10.73;;;;;;;;;;6250142;23;20137;-63
2022/03/22 08:29:44;;;;;;;14.38;10.65;;;;;;;;;;6222699;23;20155;-61
2022/03/22 08:32:10;;;;;;;15.32;10.80;;;;;;;;;;6250088;23;20587;-63
2022/03/22 08:34:36;;;;;;;15.75;11.15;;;;;;;;;;6249436;23;20140;-62
2022/03/22 08:37:03;;;;;;;15.38;11.10;;;;;;;;;;6248905;23;20144;-62
2022/03/22 08:39:28;;;;;;;14.80;10.57;;;;;;;;;;6249585;23;20182;-62
2022/03/22 08:41:54;;;;;;;20.10;11.02;;;;;;;;;;6249418;23;20140;-61
2022/03/22 08:44:20;;;;;;;13.98;10.65;;;;;;;;;;6249208;23;20201;-62
2022/03/22 08:46:46;;;;;;;16.55;10.50;;;;;;;;;;6249170;23;20139;-61
2022/03/22 08:49:12;;;;;;;17.23;11.85;;;;;;;;;;6248982;23;20223;-62
2022/03/22 08:51:38;;;;;;;17.45;11.63;;;;;;;;;;6248614;23;20151;-61
2022/03/22 08:54:06;;;;;;;18.67;11.45;;;;;;;;;;6248983;23;20451;-62
2022/03/22 08:56:32;;;;;;;14.88;10.90;;;;;;;;;;6248893;23;20198;-61
2022/03/22 08:58:58;;;;;;;16.17;11.40;;;;;;;;;;6250505;23;20232;-61
2022/03/22 09:01:24;;;;;;;17.00;11.30;;;;;;;;;;6249031;23;20228;-62
2022/03/22 09:06:07;;;;;;;16.40;10.98;;;;;;;;;;6249545;23;20493;-61
2022/03/22 09:06:38;;;;;;;17.38;11.32;;;;;;;;;;6248164;23;20492;-61
2022/03/22 09:09:05;;;;;;;16.10;11.15;;;;;;;;;;6248185;23;20564;-61
2022/03/22 09:11:31;;;;;;;15.13;10.95;;;;;;;;;;6247970;23;20140;-61
2022/03/22 09:13:57;;;;;;;14.82;11.57;;;;;;;;;;6247826;23;20151;-61
2022/03/22 09:16:23;;;;;;;14.20;10.88;;;;;;;;;;6247908;23;20144;-59
2022/03/22 09:18:49;;;;;;;15.82;11.05;;;;;;;;;;6247863;23;20193;-59
2022/03/22 09:21:16;;;;;;;15.85;11.02;;;;;;;;;;6248538;23;20140;-60
2022/03/22 09:23:42;;;;;;;15.57;11.50;;;;;;;;;;6248173;23;20543;-61
2022/03/22 09:26:08;;;;;;;14.52;10.88;;;;;;;;;;6248604;23;20191;-62
2022/03/22 09:28:34;;;;;;;14.73;10.98;;;;;;;;;;6249582;23;20148;-62
2022/03/22 09:31:01;;;;;;;16.42;11.52;;;;;;;;;;6249674;23;20544;-62
2022/03/22 09:33:26;;;;;;;17.02;10.70;;;;;;;;;;6249729;23;20227;-62
2022/03/22 09:35:57;;;;;;;15.70;10.80;;;;;;;;;;6249173;23;20198;-62
2022/03/22 09:38:23;;;;;;;14.85;11.27;;;;;;;;;;6249614;23;20184;-62
2022/03/22 09:40:49;;;;;;;14.48;10.75;;;;;;;;;;6250125;23;20136;-62
2022/03/22 09:43:16;;;;;;;17.08;11.60;;;;;;;;;;6249903;23;20147;-62
2022/03/22 09:45:44;;;;;;;16.70;10.38;;;;;;;;;;6249658;23;20151;-61
2022/03/22 09:48:10;;;;;;;16.83;11.73;;;;;;;;;;6247170;23;20218;-61
2022/03/22 09:53:20;;;;;;;17.80;11.43;;;;;;;;;;6246385;23;20206;-61
2022/03/22 09:55:46;;;;;;;14.32;10.85;;;;;;;;;;6246429;23;20160;-61
2022/03/22 09:58:12;;;;;;;15.73;11.88;;;;;;;;;;6246318;23;20168;-61
2022/03/22 10:00:38;;;;;;;14.85;11.48;;;;;;;;;;6246045;23;20155;-61
2022/03/22 10:03:05;;;;;;;16.45;11.48;;;;;;;;;;6246581;23;20136;-62
2022/03/22 10:05:31;;;;;;;15.50;11.70;;;;;;;;;;6246553;23;20548;-62
2022/03/22 10:08:01;;;;;;;16.75;13.10;;;;;;;;;;6246318;23;20151;-61
2022/03/22 10:10:27;;;;;;;17.83;12.65;;;;;;;;;;6246115;23;20533;-61
2022/03/22 10:13:00;;;;;;;16.85;12.85;;;;;;;;;;6246255;23;20140;-61
2022/03/22 10:15:29;;;;;;;18.83;12.73;;;;;;;;;;6245985;23;20140;-61
2022/03/22 10:18:04;;;;;;;19.52;13.05;;;;;;;;;;6246119;23;20178;-61
2022/03/22 10:20:30;;;;;;;20.83;13.57;;;;;;;;;;6245751;23;20575;-61
2022/03/22 10:22:58;;;;;;;18.15;13.77;;;;;;;;;;6246271;23;20159;-61
2022/03/22 10:25:24;;;;;;;18.00;13.07;;;;;;;;;;6246686;23;20168;-62
2022/03/22 10:27:54;;;;;;;17.50;11.98;;;;;;;;;;6246113;23;20152;-60
2022/03/22 10:30:19;;;;;;;14.65;11.80;;;;;;;;;;6246429;23;20150;-61
2022/03/22 10:32:55;;;;;;;17.15;11.77;;;;;;;;;;6246100;23;20151;-62
2022/03/22 10:35:26;;;;;;;15.52;12.00;;;;;;;;;;6246420;23;20124;-63
2022/03/22 10:37:54;;;;;;;18.92;12.50;;;;;;;;;;6245894;23;20202;-63
2022/03/22 10:40:52;;;;;;;15.43;12.10;;;;;;;;;;6246019;23;20172;-66
2022/03/22 10:43:19;;;;;;;18.10;12.70;;;;;;;;;;6124117;23;20517;-62
2022/03/22 10:45:48;;;;;;;15.85;12.13;;;;;;;;;;6124091;23;20151;-63
2022/03/22 10:48:22;;;;;;;16.13;12.32;;;;;;;;;;6124411;23;20194;-64
2022/03/22 10:50:48;;;;;;;16.05;11.55;;;;;;;;;;6125823;23;20138;-63
2022/03/22 10:53:18;;;;;;;16.45;12.07;;;;;;;;;;6125724;23;20151;-63
2022/03/22 10:55:44;;;;;;;15.70;11.73;;;;;;;;;;6126073;23;20612;-63
2022/03/22 10:58:13;;;;;;;16.80;12.02;;;;;;;;;;6125969;23;20198;-63
2022/03/22 11:00:41;;;;;;;15.85;11.63;;;;;;;;;;6126451;23;20154;-64
2022/03/22 11:03:07;;;;;;;17.20;12.07;;;;;;;;;;6125625;23;20327;-64
2022/03/22 11:05:34;;;;;;;16.65;12.15;;;;;;;;;;6125359;23;20583;-64
2022/03/22 11:08:00;;;;;;;14.43;11.02;;;;;;;;;;6125703;23;20163;-65
2022/03/22 11:10:29;;;;;;;15.90;11.55;;;;;;;;;;6125603;23;20154;-65
2022/03/22 11:12:57;;;;;;;16.42;11.23;;;;;;;;;;6125589;23;20150;-64
2022/03/22 11:15:24;;;;;;;17.08;11.23;;;;;;;;;;6125436;23;20143;-65
2022/03/22 11:17:51;;;;;;;15.52;11.57;;;;;;;;;;6135881;23;20147;-65
2022/03/22 11:20:17;;;;;;;13.95;11.20;;;;;;;;;;6247231;23;20556;-64
2022/03/22 11:22:46;;;;;;;14.60;11.23;;;;;;;;;;6247830;23;20171;-65
2022/03/22 11:25:13;;;;;;;13.68;11.50;;;;;;;;;;6247515;22;20171;-65
2022/03/22 11:27:39;;;;;;;15.93;11.07;;;;;;;;;;6247804;23;20155;-65
2022/03/22 11:30:07;;;;;;;15.02;11.05;;;;;;;;;;6247373;23;20172;-65
2022/03/22 11:35:18;;;;;;;14.05;11.25;;;;;;;;;;6247383;23;20438;-64
2022/03/22 11:37:53;;;;;;;13.43;10.88;;;;;;;;;;6247537;23;20144;-65
2022/03/22 11:43:10;;;;;;;12.95;11.30;;;;;;;;;;6247241;23;20139;-64
2022/03/22 11:45:46;;;;;;;14.57;11.20;;;;;;;;;;6247116;23;20486;-65
2022/03/22 11:48:12;;;;;;;16.23;10.77;;;;;;;;;;6247180;23;20210;-64
2022/03/22 11:50:38;;;;;;;13.35;10.68;;;;;;;;;;6247490;23;20204;-64
2022/03/22 11:53:04;;;;;;;13.45;10.73;;;;;;;;;;6247165;23;20140;-64
2022/03/22 11:55:30;;;;;;;13.35;11.43;;;;;;;;;;6247123;23;20489;-64
2022/03/22 11:57:56;;;;;;;13.93;10.68;;;;;;;;;;6247019;23;20231;-64
2022/03/22 12:00:23;;;;;;;14.18;10.85;;;;;;;;;;6246904;23;20572;-65
2022/03/22 12:02:53;;;;;;;13.77;10.20;;;;;;;;;;6220320;23;20144;-65
2022/03/22 12:05:20;;;;;;;15.90;10.98;;;;;;;;;;6246925;23;20128;-65
2022/03/22 12:07:47;;;;;;;14.88;10.60;;;;;;;;;;6247334;23;20223;-64
2022/03/22 12:10:15;;;;;;;13.25;10.75;;;;;;;;;;6247232;23;20172;-63
2022/03/22 12:12:48;;;;;;;12.32;10.50;;;;;;;;;;6246610;23;20244;-63
2022/03/22 12:15:16;;;;;;;13.50;10.73;;;;;;;;;;6246727;23;20604;-64
2022/03/22 12:17:43;;;;;;;11.45;9.98;;;;;;;;;;6246947;23;20399;-65
2022/03/22 12:20:14;;;;;;;11.63;10.43;;;;;;;;;;6247057;23;20178;-64
2022/03/22 12:22:41;;;;;;;12.32;9.75;;;;;;;;;;6246564;23;20155;-65
2022/03/22 12:25:09;;;;;;;13.18;10.80;;;;;;;;;;6247192;23;20136;-65
2022/03/22 12:27:35;;;;;;;13.07;9.88;;;;;;;;;;6246919;23;20215;-64
2022/03/22 12:30:00;;;;;;;12.45;10.50;;;;;;;;;;6246837;23;20175;-64
2022/03/22 12:32:27;;;;;;;12.73;10.73;;;;;;;;;;6247126;23;20150;-64
2022/03/22 12:34:54;;;;;;;13.13;11.02;;;;;;;;;;6247286;23;20464;-64
2022/03/22 12:37:20;;;;;;;12.02;9.95;;;;;;;;;;6247450;23;20148;-64
2022/03/22 12:39:46;;;;;;;13.15;10.40;;;;;;;;;;6247097;23;20188;-64
2022/03/22 12:42:14;;;;;;;14.20;10.73;;;;;;;;;;6246917;23;20163;-64
2022/03/22 12:44:40;;;;;;;12.55;10.30;;;;;;;;;;6246679;23;20156;-64
2022/03/22 12:47:06;;;;;;;15.52;11.55;;;;;;;;;;6246858;23;20578;-64
2022/03/22 12:49:39;;;;;;;13.50;10.50;;;;;;;;;;6246905;23;20205;-65
2022/03/22 12:52:06;;;;;;;13.48;11.05;;;;;;;;;;6246828;23;20147;-64
2022/03/22 12:54:33;;;;;;;13.70;11.00;;;;;;;;;;6246874;23;20500;-65
2022/03/22 12:57:01;;;;;;;13.18;11.32;;;;;;;;;;6246416;23;20144;-64
2022/03/22 12:59:27;;;;;;;12.85;10.63;;;;;;;;;;6246431;23;20163;-64
2022/03/22 13:01:56;;;;;;;11.68;9.98;;;;;;;;;;6220026;23;20599;-64
2022/03/22 13:04:23;;;;;;;14.48;9.70;;;;;;;;;;6246392;23;20162;-63
2022/03/22 13:06:54;;;;;;;12.38;10.13;;;;;;;;;;6246554;23;20183;-64
2022/03/22 13:12:09;;;;;;;13.20;11.15;;;;;;;;;;6246352;23;20563;-62
2022/03/22 13:17:20;;;;;;;12.63;9.63;;;;;;;;;;6246984;23;20448;-62
2022/03/22 13:19:46;;;;;;;14.73;10.95;;;;;;;;;;6247292;23;20159;-62
2022/03/22 13:22:21;;;;;;;13.60;10.50;;;;;;;;;;6246532;23;20147;-62
2022/03/22 13:24:48;;;;;;;15.98;11.38;;;;;;;;;;6247095;23;20434;-62
2022/03/22 13:27:17;;;;;;;13.73;10.75;;;;;;;;;;6247322;23;20144;-60
2022/03/22 13:29:43;;;;;;;14.10;10.13;;;;;;;;;;6246999;23;20186;-61
2022/03/22 13:32:10;;;;;;;14.63;10.18;;;;;;;;;;6246813;23;20140;-62
2022/03/22 13:34:37;;;;;;;13.48;10.23;;;;;;;;;;6246694;23;20448;-60
2022/03/22 13:37:03;;;;;;;11.80;10.27;;;;;;;;;;6246711;23;20151;-61
2022/03/22 13:39:29;;;;;;;16.33;10.90;;;;;;;;;;6246519;23;20156;-61
2022/03/22 13:42:09;;;;;;;12.00;10.70;;;;;;;;;;6247380;23;20142;-61
2022/03/22 13:44:43;;;;;;;13.10;11.30;;;;;;;;;;6246693;23;20139;-61
2022/03/22 13:47:09;;;;;;;12.38;10.98;;;;;;;;;;6246390;23;20539;-61
2022/03/22 13:49:36;;;;;;;13.20;11.07;;;;;;;;;;6246598;23;20144;-61
2022/03/22 13:52:02;;;;;;;11.45;10.10;;;;;;;;;;6246233;23;20193;-62
2022/03/22 13:54:28;;;;;;;12.95;10.13;;;;;;;;;;6246514;23;20155;-61
2022/03/22 13:57:07;;;;;;;12.40;10.38;;;;;;;;;;6246200;23;20144;-62
2022/03/22 13:59:40;;;;;;;13.52;10.93;;;;;;;;;;6246582;23;20583;-61
2022/03/22 14:02:07;;;;;;;13.52;10.98;;;;;;;;;;6246776;23;20425;-61
2022/03/22 14:04:34;;;;;;;14.80;11.13;;;;;;;;;;6246954;23;20223;-61
2022/03/22 14:07:01;;;;;;;13.02;10.73;;;;;;;;;;6246646;23;20167;-61
2022/03/22 14:09:27;;;;;;;13.40;10.85;;;;;;;;;;6246780;23;20140;-61
2022/03/22 14:11:52;;;;;;;12.55;10.65;;;;;;;;;;6246683;23;20563;-61
2022/03/22 14:14:18;;;;;;;12.38;10.10;;;;;;;;;;6246530;23;20567;-61
2022/03/22 14:16:44;;;;;;;14.52;10.65;;;;;;;;;;6246205;23;20140;-61
2022/03/22 14:19:13;;;;;;;12.82;10.98;;;;;;;;;;6246863;23;20172;-61
2022/03/22 14:21:39;;;;;;;12.00;10.38;;;;;;;;;;6246831;23;20140;-61
2022/03/22 14:24:05;;;;;;;13.45;11.07;;;;;;;;;;6246978;23;20410;-61
2022/03/22 14:26:31;;;;;;;12.85;10.20;;;;;;;;;;6248223;23;20147;-61
2022/03/22 14:28:57;;;;;;;12.57;10.63;;;;;;;;;;6248198;23;20144;-62
2022/03/22 14:31:23;;;;;;;12.68;10.55;;;;;;;;;;6248691;23;20143;-62
2022/03/22 14:33:49;;;;;;;14.15;11.00;;;;;;;;;;6248265;23;20278;-62
2022/03/22 14:36:15;;;;;;;13.02;11.23;;;;;;;;;;6248361;23;20151;-63
2022/03/22 14:38:41;;;;;;;14.73;11.00;;;;;;;;;;6247894;23;20174;-62
2022/03/22 14:41:24;;;;;;;15.48;10.98;;;;;;;;;;6248249;23;20190;-62
2022/03/22 14:43:51;;;;;;;13.30;11.02;;;;;;;;;;6248256;23;20135;-62
2022/03/22 14:46:18;;;;;;;13.45;10.68;;;;;;;;;;6248452;23;20223;-62
2022/03/22 14:48:44;;;;;;;13.20;10.80;;;;;;;;;;6248276;23;20148;-61
2022/03/22 14:51:10;;;;;;;14.10;10.73;;;;;;;;;;6247620;23;20147;-63
2022/03/22 14:59:05;;;;;;;12.98;11.27;;;;;;;;;;6247695;23;20297;-61
2022/03/22 15:01:31;;;;;;;13.05;11.00;;;;;;;;;;6247830;23;20151;-61
2022/03/22 15:04:00;;;;;;;13.65;10.75;;;;;;;;;;6248055;23;20159;-61
2022/03/22 15:06:27;;;;;;;16.00;10.75;;;;;;;;;;6247937;23;20223;-62
2022/03/22 15:08:54;;;;;;;13.50;10.52;;;;;;;;;;6248571;23;20154;-61
2022/03/22 15:11:21;;;;;;;11.50;10.30;;;;;;;;;;6247969;23;20148;-62